Ventura — ZCDT2 — position and weather

sailwx.info

Track history (hours):
 
Tides and Currents Weather Stations Pressure Air Temp Water Temp Dewpoint Dewpoint Depression Visibility Wind Speed Wind Dir Waves Ship Positions

Ventura

Last reported at 2017-Jun-29 00:30 UTC. Time now 2017-Jun-29 00:52 UTC.
Position N 36°27' E 014°27'.

Length 289 m; draft 8.6 m.

Type: Passenger vessel. MMSI: 310562000.

Date/timePositionNaut miles runAvg speedWind from/ knotsBaromVisibWave heightAir tempDewpointWater temp
2017-Jun-29 00:30N 36°27' E 014°27'918.6
2017-Jun-29 00:00N 36°30' E 014°16'918.4
2017-Jun-28 23:30N 36°33' E 014°05'918.9
2017-Jun-28 23:00N 36°36' E 013°54'1019.3
2017-Jun-28 22:30N 36°40' E 013°42'1019.4
2017-Jun-28 22:01N 36°43' E 013°31'1019.0
2017-Jun-28 21:30N 36°45' E 013°20'918.7
2017-Jun-28 21:01N 36°47' E 013°08'917.5
2017-Jun-28 20:30N 36°50' E 012°58'917.5
2017-Jun-28 20:00N 36°53' E 012°48'917.5
2017-Jun-28 19:31N 36°56' E 012°38'918.2
2017-Jun-28 19:00N 36°59' E 012°27'918.6
2017-Jun-28 18:30N 37°01' E 012°15'918.5
2017-Jun-28 18:00N 37°04' E 012°04'918.4
2017-Jun-28 17:31N 37°07' E 011°54'3218.4
2017-Jun-28 15:46N 37°20' E 011°17'518.7
2017-Jun-28 15:30N 37°23' E 011°11'918.6
2017-Jun-28 15:00N 37°27' E 011°01'1918.7
2017-Jun-28 14:01N 37°32' E 010°38'12701.8
2017-Jun-28 14:00N 37°30' E 010°24'510.6 290 / 191011.5 27.218.325.1
2017-Jun-28 13:29N 37°35' E 010°27'919.0
2017-Jun-28 13:00N 37°35' E 010°15'1018.8
2017-Jun-28 12:30N 37°35' E 010°03'918.7
2017-Jun-28 12:01N 37°37' E 009°51'918.9
2017-Jun-28 11:31N 37°40' E 009°40'1119.1
2017-Jun-28 10:55N 37°43' E 009°26'818.9
2017-Jun-28 10:30N 37°45' E 009°17'1018.8
2017-Jun-28 10:00N 37°48' E 009°05'918.7
2017-Jun-28 09:31N 37°51' E 008°54'2518.4
2017-Jun-28 08:08N 37°57' E 008°24'3817.5
2017-Jun-28 06:00N 38°00' E 007°36'8420.9 250 / 131007.4 5.4 26.421.625.0
2017-Jun-28 02:00N 38°24' E 005°54'3 8.1 230 / 201008.1 5.4 26.022.325.4
2017-Jun-28 01:39N 38°25' E 005°57'518.1
2017-Jun-28 01:21N 38°27' E 005°50'1718.1
2017-Jun-28 00:24N 38°31' E 005°29'718.2
2017-Jun-28 00:00N 38°32' E 005°20'918.5
2017-Jun-27 23:31N 38°35' E 005°09'1319.0
2017-Jun-27 22:50N 38°38' E 004°53'919.2
2017-Jun-27 22:22N 38°40' E 004°42'1019.1
2017-Jun-27 21:50N 38°42' E 004°29'919.0
2017-Jun-27 21:22N 38°45' E 004°18'719.2
2017-Jun-27 21:00N 38°46' E 004°09'5844.9
2017-Jun-27 21:00N 38°42' E 004°12'1326.6 200 / 221008.210.8 25.521.824.9
2017-Jun-27 20:30N 38°49' E 003°57'1019.3
2017-Jun-27 20:00N 38°51' E 003°45'1019.2
2017-Jun-27 19:30N 38°53' E 003°34'919.1
2017-Jun-27 19:01N 38°55' E 003°22'1019.3
2017-Jun-27 18:30N 38°58' E 003°10'1019.2
2017-Jun-27 18:00N 39°00' E 002°58'917.5
2017-Jun-27 17:31N 39°05' E 002°48'917.6
2017-Jun-27 17:01N 39°13' E 002°44'816.7
2017-Jun-27 16:30N 39°21' E 002°39'714.9
2017-Jun-27 16:00N 39°28' E 002°38'510.1
2017-Jun-27 15:30N 39°33' E 002°38'1 1.1
2017-Jun-27 14:56N 39°33' E 002°38'0 0.0
2017-Jun-27 13:59N 39°33' E 002°38'0 0.0
2017-Jun-27 13:29N 39°33' E 002°38'0 0.0
2017-Jun-27 12:59N 39°33' E 002°38'0 0.0
2017-Jun-27 12:29N 39°33' E 002°38'0 0.0
2017-Jun-27 11:59N 39°33' E 002°38'0 0.0
2017-Jun-27 11:29N 39°33' E 002°38'0 0.0
2017-Jun-27 10:59N 39°33' E 002°38'0 0.0
2017-Jun-27 10:29N 39°33' E 002°38'0 0.0
2017-Jun-27 09:59N 39°33' E 002°38'0 0.0
2017-Jun-27 09:29N 39°33' E 002°38'0 0.0
2017-Jun-27 08:59N 39°33' E 002°38'0 0.0
2017-Jun-27 08:29N 39°33' E 002°38'0 0.0
2017-Jun-27 07:59N 39°33' E 002°38'0 0.0
2017-Jun-27 07:29N 39°33' E 002°38'0 0.0
2017-Jun-27 06:59N 39°33' E 002°38'0 0.0
2017-Jun-27 06:29N 39°33' E 002°38'0 0.0
2017-Jun-27 05:59N 39°33' E 002°38'0 0.1
2017-Jun-27 05:30N 39°33' E 002°38'2 3.7
2017-Jun-27 05:00N 39°32' E 002°39'613.0
2017-Jun-27 04:30N 39°26' E 002°35'713.3
2017-Jun-27 04:00N 39°21' E 002°30'917.1
2017-Jun-27 03:30N 39°14' E 002°23'1121.7
2017-Jun-27 03:00N 39°06' E 002°14'1121.2
2017-Jun-27 02:30N 38°58' E 002°05'1121.2
2017-Jun-27 02:00N 38°50' E 001°56'1121.4
2017-Jun-27 01:30N 38°42' E 001°48'1121.5
2017-Jun-27 01:00N 38°34' E 001°38'11736.4
2017-Jun-27 01:00N 38°42' E 001°48'2245.3 180 / 21012.8 5.4 24.021.022.0
2017-Jun-27 00:30N 38°27' E 001°27'1421.6
2017-Jun-26 23:50N 38°19' E 001°12'721.7
2017-Jun-26 23:30N 38°15' E 001°05'1121.6
2017-Jun-26 23:00N 38°08' E 000°54'1121.4
2017-Jun-26 22:30N 38°02' E 000°42'1221.6
2017-Jun-26 21:55N 37°55' E 000°30'921.5
2017-Jun-26 21:29N 37°49' E 000°20'1121.8
2017-Jun-26 21:00N 37°43' E 000°09'1121.6
2017-Jun-26 20:30N 37°37' W 000°02'1121.7
2017-Jun-26 20:00N 37°30' W 000°13'1121.9
2017-Jun-26 19:30N 37°24' W 000°24'1121.8
2017-Jun-26 19:00N 37°18' W 000°35'1121.8
2017-Jun-26 18:31N 37°11' W 000°46'1121.6
2017-Jun-26 18:00N 37°05' W 000°57'1021.0
2017-Jun-26 17:31N 36°58' W 001°08'1020.6
2017-Jun-26 17:01N 36°53' W 001°18'1220.8
2017-Jun-26 16:26N 36°46' W 001°30'921.1
2017-Jun-26 15:59N 36°40' W 001°40'1120.8
2017-Jun-26 15:29N 36°34' W 001°51'1020.9
2017-Jun-26 15:00N 36°28' W 001°60'1120.8
2017-Jun-26 14:30N 36°23' W 002°12'14719.5
2017-Jun-26 06:57N 36°01' W 005°12'1021.7
2017-Jun-26 06:30N 35°59' W 005°24'2021.4
2017-Jun-26 05:33N 35°55' W 005°48'222.7
2017-Jun-26 05:28N 35°54' W 005°51'1122.4
2017-Jun-26 04:58N 35°54' W 006°04'1222.1
2017-Jun-26 04:26N 35°55' W 006°19'1021.4
2017-Jun-26 03:58N 35°58' W 006°31'1421.1
2017-Jun-26 03:17N 36°02' W 006°48'621.4
2017-Jun-26 03:00N 36°03' W 006°55'1121.1
2017-Jun-26 02:31N 36°06' W 007°07'1121.0
2017-Jun-26 02:00N 36°08' W 007°20'1020.9
2017-Jun-26 01:31N 36°11' W 007°33'1121.3
2017-Jun-26 01:00N 36°14' W 007°46'1021.2
2017-Jun-26 00:30N 36°16' W 007°58'1121.2
2017-Jun-26 00:00N 36°19' W 008°11'1121.3
2017-Jun-25 23:30N 36°22' W 008°24'1121.3
2017-Jun-25 22:58N 36°25' W 008°37'1021.1
2017-Jun-25 22:30N 36°28' W 008°49'4 7.4
2017-Jun-25 22:00N 36°24' W 008°48'13747.3 340 / 321014.310.8 20.417.721.7
2017-Jun-25 21:58N 36°31' W 009°03'1021.0
2017-Jun-25 21:30N 36°34' W 009°15'1121.2
2017-Jun-25 20:58N 36°41' W 009°25'920.8
2017-Jun-25 20:31N 36°48' W 009°33'1121.3
2017-Jun-25 20:00N 36°59' W 009°37'1021.1
2017-Jun-25 19:31N 37°08' W 009°41'1121.0
2017-Jun-25 19:00N 37°19' W 009°42'1020.9
2017-Jun-25 18:31N 37°29' W 009°45'1121.3
2017-Jun-25 18:01N 37°40' W 009°48'1121.0
2017-Jun-25 17:30N 37°50' W 009°51'1020.9
2017-Jun-25 17:01N 37°60' W 009°55'1020.8
2017-Jun-25 16:31N 38°10' W 009°57'1020.6
2017-Jun-25 16:01N 38°20' W 009°60'1020.7
2017-Jun-25 15:31N 38°30' W 010°03'1020.6
2017-Jun-25 15:00N 38°40' W 010°06'1019.6
2017-Jun-25 14:30N 38°50' W 010°07'1919.5
2017-Jun-25 13:30N 39°10' W 010°06'1020.1
2017-Jun-25 13:00N 39°20' W 010°05'1020.1
2017-Jun-25 12:31N 39°30' W 010°06'1020.2
2017-Jun-25 12:00N 39°40' W 010°06'1120.0
2017-Jun-25 11:27N 39°51' W 010°06'920.0
2017-Jun-25 11:00N 39°60' W 010°06'1120.0
2017-Jun-25 10:28N 40°11' W 010°07'2219.9
2017-Jun-25 09:22N 40°33' W 010°07'820.1
2017-Jun-25 08:57N 40°41' W 010°06'1119.9
2017-Jun-25 08:24N 40°52' W 010°06'1019.9
2017-Jun-25 07:52N 41°02' W 010°07'819.9
2017-Jun-25 07:28N 41°10' W 010°07'1020.3
2017-Jun-25 06:57N 41°21' W 010°07'920.9
2017-Jun-25 06:30N 41°30' W 010°07'41319.5
2017-Jun-24 09:20N 47°46' W 006°07'721.8
2017-Jun-24 09:00N 47°52' W 006°01'2621.8
2017-Jun-24 07:49N 48°14' W 005°40'721.4
2017-Jun-24 07:28N 48°20' W 005°34'1021.4
2017-Jun-24 07:01N 48°28' W 005°27'5269.2
2017-Jun-24 07:00N 48°24' W 005°24'1327.1 240 / 231018.210.8 17.514.916.0
2017-Jun-24 06:31N 48°36' W 005°17'1019.1
2017-Jun-24 06:01N 48°43' W 005°07'918.3
2017-Jun-24 05:31N 48°49' W 004°56'917.6
2017-Jun-24 05:01N 48°55' W 004°46'917.4
2017-Jun-24 04:30N 49°00' W 004°36'917.5
2017-Jun-24 04:00N 49°06' W 004°26'917.7
2017-Jun-24 03:30N 49°12' W 004°16'1018.4
2017-Jun-24 02:57N 49°19' W 004°05'1319.1
2017-Jun-24 02:16N 49°29' W 003°52'720.0
2017-Jun-24 01:56N 49°32' W 003°43'920.9
2017-Jun-24 01:30N 49°38' W 003°32'1121.7
2017-Jun-24 01:00N 49°46' W 003°20'1122.2
2017-Jun-24 00:30N 49°53' W 003°07'1122.0
2017-Jun-24 00:00N 49°58' W 002°52'1122.0
2017-Jun-23 23:30N 50°02' W 002°36'1121.5
2017-Jun-23 23:00N 50°07' W 002°21'1220.6
2017-Jun-23 22:26N 50°12' W 002°04'715.1
2017-Jun-23 22:00N 50°12' W 001°54'928.7 240 / 241017.810.8 15.314.119.0
2017-Jun-23 21:40N 50°19' W 001°44'2117.5
2017-Jun-23 20:27N 50°29' W 001°15'714.8
2017-Jun-23 20:01N 50°33' W 001°07'713.9
2017-Jun-23 19:30N 50°38' W 000°59'5 9.3
2017-Jun-23 19:00N 50°43' W 001°00'816.7
2017-Jun-23 18:31N 50°46' W 001°12'510.5
2017-Jun-23 18:00N 50°49' W 001°18'5 9.5
2017-Jun-23 17:30N 50°53' W 001°24'1 1.3
2017-Jun-23 16:58N 50°53' W 001°24'0 0.0
2017-Jun-23 16:28N 50°53' W 001°24'0 0.0
2017-Jun-23 15:58N 50°53' W 001°24'0 0.0
2017-Jun-23 15:28N 50°53' W 001°24'0 0.0
2017-Jun-23 14:55N 50°53' W 001°24'0 0.0
2017-Jun-23 13:58N 50°53' W 001°24'0 0.0
2017-Jun-23 13:28N 50°53' W 001°24'0 0.0
2017-Jun-23 12:58N 50°53' W 001°24'0 0.0
2017-Jun-23 12:28N 50°53' W 001°24'0 0.0
2017-Jun-23 11:58N 50°53' W 001°24'0 0.0
2017-Jun-23 11:28N 50°53' W 001°24'0 0.0
2017-Jun-23 10:58N 50°53' W 001°24'0 0.0
2017-Jun-23 10:28N 50°53' W 001°24'0 0.0
2017-Jun-23 09:58N 50°53' W 001°24'0 0.0
2017-Jun-23 09:28N 50°53' W 001°24'0 0.0
2017-Jun-23 08:58N 50°53' W 001°24'0 0.0
2017-Jun-23 08:28N 50°53' W 001°24'0 0.0
2017-Jun-23 07:58N 50°53' W 001°24'0 0.0
2017-Jun-23 07:28N 50°53' W 001°24'0 0.0
2017-Jun-23 06:58N 50°53' W 001°24'0 0.0
2017-Jun-23 06:28N 50°53' W 001°24'0 0.0
2017-Jun-23 05:58N 50°53' W 001°24'0 0.0
2017-Jun-23 05:28N 50°53' W 001°24'0 0.4
2017-Jun-23 05:00N 50°53' W 001°24'3 6.5
2017-Jun-23 04:31N 50°51' W 001°20'4 8.1
2017-Jun-23 04:01N 50°47' W 001°19'713.5
2017-Jun-23 03:31N 50°46' W 001°08'815.3
2017-Jun-23 03:01N 50°42' W 000°58'612.2
2017-Jun-23 02:31N 50°36' W 000°60'713.3
2017-Jun-23 02:00N 50°31' W 001°07'611.5
2017-Jun-23 01:30N 50°28' W 001°15'611.2
2017-Jun-23 01:00N 50°26' W 001°23'610.7
2017-Jun-23 00:27N 50°23' W 001°31'510.1
2017-Jun-22 23:54N 50°21' W 001°39'410.0
2017-Jun-22 23:29N 50°21' W 001°46'510.6
2017-Jun-22 23:00N 50°19' W 001°54'611.3
2017-Jun-22 22:26N 50°17' W 002°03'512.2
2017-Jun-22 22:00N 50°15' W 002°10'712.3
2017-Jun-22 21:24N 50°07' W 002°08'612.5
2017-Jun-22 20:57N 50°02' W 002°06'812.3
2017-Jun-22 20:17N 49°54' W 002°03'412.2
2017-Jun-22 19:56N 49°50' W 002°03'914.3
2017-Jun-22 19:16N 49°40' W 002°06'414.1
2017-Jun-22 18:58N 49°36' W 002°08'714.1
2017-Jun-22 18:30N 49°30' W 002°11'814.4
2017-Jun-22 17:58N 49°23' W 002°16'10 9.5
2017-Jun-22 16:54N 49°28' W 002°30'0 0.0
2017-Jun-22 16:12N 49°28' W 002°30'0 0.0
2017-Jun-22 14:15N 49°28' W 002°30'0 0.0
2017-Jun-22 11:51N 49°28' W 002°30'0 0.0
2017-Jun-22 10:15N 49°28' W 002°30'0 0.2
2017-Jun-22 10:00N 49°28' W 002°30'0 0.0
2017-Jun-22 08:03N 49°28' W 002°30'0 0.0
2017-Jun-22 07:51N 49°28' W 002°30'0 0.0
2017-Jun-22 07:24N 49°28' W 002°30'0 0.0
2017-Jun-22 06:57N 49°28' W 002°30'0 0.0
2017-Jun-22 06:30N 49°28' W 002°30'1 1.4
2017-Jun-22 05:59N 49°27' W 002°30'4 9.3
2017-Jun-22 05:31N 49°23' W 002°31'612.6
2017-Jun-22 05:00N 49°20' W 002°40'612.4
2017-Jun-22 04:30N 49°18' W 002°49'612.5
2017-Jun-22 04:00N 49°16' W 002°58'612.7
2017-Jun-22 03:30N 49°14' W 003°07'612.8
2017-Jun-22 03:01N 49°12' W 003°16'713.9
2017-Jun-22 02:31N 49°10' W 003°27'714.6
2017-Jun-22 02:00N 49°07' W 003°37'714.8
2017-Jun-22 01:31N 49°05' W 003°48'814.9
2017-Jun-22 01:00N 49°02' W 003°58'714.6
2017-Jun-22 00:31N 48°60' W 004°09'714.3
2017-Jun-22 00:01N 48°57' W 004°19'714.2
2017-Jun-21 23:30N 48°54' W 004°29'713.6
2017-Jun-21 23:00N 48°52' W 004°39'713.2
2017-Jun-21 22:30N 48°49' W 004°48'613.1
2017-Jun-21 22:00N 48°46' W 004°57'713.6
2017-Jun-21 21:30N 48°43' W 005°06'713.3
2017-Jun-21 21:00N 48°39' W 005°14'713.4
2017-Jun-21 20:30N 48°34' W 005°20'612.8
2017-Jun-21 20:00N 48°28' W 005°25'612.6
2017-Jun-21 19:30N 48°22' W 005°26'612.4
2017-Jun-21 19:00N 48°16' W 005°27'612.9
2017-Jun-21 18:30N 48°09' W 005°26'612.6
2017-Jun-21 18:00N 48°03' W 005°25'611.5
2017-Jun-21 17:30N 47°57' W 005°24'612.4
2017-Jun-21 17:00N 47°51' W 005°22'713.4
2017-Jun-21 16:30N 47°45' W 005°19'713.5
2017-Jun-21 16:00N 47°38' W 005°16'713.6
2017-Jun-21 15:30N 47°32' W 005°13'713.4
2017-Jun-21 15:00N 47°26' W 005°09'1413.9
2017-Jun-21 14:01N 47°13' W 005°02'714.1
2017-Jun-21 13:31N 47°06' W 004°59'713.9
2017-Jun-21 13:00N 46°59' W 004°55'713.6
2017-Jun-21 12:30N 46°53' W 004°52'713.7
2017-Jun-21 12:00N 46°46' W 004°49'714.2
2017-Jun-21 11:30N 46°40' W 004°45'713.8
2017-Jun-21 11:00N 46°33' W 004°42'713.7
2017-Jun-21 10:31N 46°27' W 004°38'714.7
2017-Jun-21 10:01N 46°20' W 004°35'714.4
2017-Jun-21 09:31N 46°13' W 004°31'713.9
2017-Jun-21 09:01N 46°07' W 004°28'714.0
2017-Jun-21 08:31N 45°60' W 004°24'713.9
2017-Jun-21 08:00N 45°53' W 004°21'713.9
2017-Jun-21 07:30N 45°47' W 004°18'713.8
2017-Jun-21 07:00N 45°40' W 004°14'714.1
2017-Jun-21 06:31N 45°34' W 004°11'714.1
2017-Jun-21 06:01N 45°27' W 004°08'3195.2
2017-Jun-21 06:00N 45°24' W 004°06'4 7.5 1018.6 5.4 21.216.819.2
2017-Jun-21 05:30N 45°21' W 004°04'713.8
2017-Jun-21 05:01N 45°14' W 004°01'714.1
2017-Jun-21 04:30N 45°07' W 003°58'713.9
2017-Jun-21 04:01N 45°01' W 003°54'714.0
2017-Jun-21 03:31N 44°54' W 003°51'714.2
2017-Jun-21 03:01N 44°48' W 003°48'713.9
2017-Jun-21 02:30N 44°41' W 003°44'713.9
2017-Jun-21 02:01N 44°35' W 003°40'713.6
2017-Jun-21 01:31N 44°29' W 003°36'713.6
2017-Jun-21 01:01N 44°22' W 003°33'713.9
2017-Jun-21 00:31N 44°15' W 003°31'713.8
2017-Jun-21 00:00N 44°09' W 003°28'713.7
2017-Jun-20 23:30N 44°02' W 003°25'713.7
2017-Jun-20 23:01N 43°56' W 003°22'714.0
2017-Jun-20 22:30N 43°49' W 003°18'713.7
2017-Jun-20 22:00N 43°43' W 003°15'714.0
2017-Jun-20 21:30N 43°36' W 003°12'713.9
2017-Jun-20 21:00N 43°30' W 003°08'612.9
2017-Jun-20 20:30N 43°24' W 003°05'32 1.8
2017-Jun-20 02:13N 43°55' W 002°57'414.5
2017-Jun-20 01:56N 43°59' W 002°55'714.5
2017-Jun-20 01:27N 44°05' W 002°51'614.4
2017-Jun-20 01:00N 44°11' W 002°47'714.6
2017-Jun-20 00:31N 44°18' W 002°43'714.6
2017-Jun-20 00:01N 44°25' W 002°39'1014.5
2017-Jun-19 23:20N 44°34' W 002°34'514.3
2017-Jun-19 23:00N 44°38' W 002°31'713.8
2017-Jun-19 22:30N 44°45' W 002°28'713.7
2017-Jun-19 22:00N 44°51' W 002°24'713.8
2017-Jun-19 21:30N 44°57' W 002°20'714.1
2017-Jun-19 21:01N 45°04' W 002°16'913.8
2017-Jun-19 20:22N 45°12' W 002°11'913.7
2017-Jun-19 19:45N 45°20' W 002°07'613.8
2017-Jun-19 19:21N 45°25' W 002°04'513.8
2017-Jun-19 19:00N 45°29' W 002°01'713.7
2017-Jun-19 18:31N 45°35' W 001°57'713.9
2017-Jun-19 18:01N 45°42' W 001°54'813.7
2017-Jun-19 17:27N 45°49' W 001°49'614.1
2017-Jun-19 17:00N 45°55' W 001°46'674282.6
2017-Jun-19 17:00N 44°48' W 001°48'73150.9 1016.810.8
2017-Jun-19 16:30N 46°01' W 001°42'713.8
2017-Jun-19 16:00N 46°07' W 001°37'714.3
2017-Jun-19 15:30N 46°07' W 001°26'714.1
2017-Jun-19 15:00N 46°06' W 001°16'4 3.7
2017-Jun-19 13:58N 46°10' W 001°14'0 0.0
2017-Jun-19 13:28N 46°10' W 001°14'0 0.0
2017-Jun-19 12:55N 46°10' W 001°14'0 0.0
2017-Jun-19 12:28N 46°10' W 001°14'0 0.0
2017-Jun-19 11:58N 46°10' W 001°14'0 0.0
2017-Jun-19 11:25N 46°10' W 001°14'0 0.0
2017-Jun-19 10:58N 46°10' W 001°14'0 0.0
2017-Jun-19 10:28N 46°10' W 001°14'0 0.0
2017-Jun-19 09:58N 46°10' W 001°14'0 0.0
2017-Jun-19 09:28N 46°10' W 001°14'0 0.0
2017-Jun-19 08:58N 46°10' W 001°14'0 0.0
2017-Jun-19 08:28N 46°10' W 001°14'0 0.0
2017-Jun-19 07:58N 46°10' W 001°14'0 0.0
2017-Jun-19 07:28N 46°10' W 001°14'0 0.0
2017-Jun-19 06:58N 46°10' W 001°14'0 0.0
2017-Jun-19 06:28N 46°10' W 001°14'0 0.0
2017-Jun-19 05:58N 46°10' W 001°14'0 0.0
2017-Jun-19 05:28N 46°10' W 001°14'0 0.6
2017-Jun-19 05:00N 46°09' W 001°15'4 7.7
2017-Jun-19 04:30N 46°06' W 001°18'612.4
2017-Jun-19 04:00N 46°07' W 001°26'713.2
2017-Jun-19 03:30N 46°07' W 001°36'713.6
2017-Jun-19 03:00N 46°09' W 001°45'714.1
2017-Jun-19 02:30N 46°13' W 001°54'714.1
2017-Jun-19 02:00N 46°17' W 002°03'714.1
2017-Jun-19 01:30N 46°21' W 002°11'714.2
2017-Jun-19 01:00N 46°24' W 002°20'714.3
2017-Jun-19 00:30N 46°28' W 002°29'  
Track history (hours):
 
Tides and Currents Weather Stations Pressure Air Temp Water Temp Dewpoint Dewpoint Depression Visibility Wind Speed Wind Dir Waves Ship Positions

Ventura

Last reported at 2017-Jun-29 00:30 UTC. Time now 2017-Jun-29 00:52 UTC.
Position N 36°27' E 014°27'.

Length 289 m; draft 8.6 m.

Type: Passenger vessel. MMSI: 310562000.

Date/timePositionNaut miles runAvg speedWind from/ knotsBaromVisibWave heightAir tempDewpointWater temp
2017-Jun-29 00:30N 36°27' E 014°27'918.6
2017-Jun-29 00:00N 36°30' E 014°16'918.4
2017-Jun-28 23:30N 36°33' E 014°05'918.9
2017-Jun-28 23:00N 36°36' E 013°54'1019.3
2017-Jun-28 22:30N 36°40' E 013°42'1019.4
2017-Jun-28 22:01N 36°43' E 013°31'1019.0
2017-Jun-28 21:30N 36°45' E 013°20'918.7
2017-Jun-28 21:01N 36°47' E 013°08'917.5
2017-Jun-28 20:30N 36°50' E 012°58'917.5
2017-Jun-28 20:00N 36°53' E 012°48'917.5
2017-Jun-28 19:31N 36°56' E 012°38'918.2
2017-Jun-28 19:00N 36°59' E 012°27'918.6
2017-Jun-28 18:30N 37°01' E 012°15'918.5
2017-Jun-28 18:00N 37°04' E 012°04'918.4
2017-Jun-28 17:31N 37°07' E 011°54'3218.4
2017-Jun-28 15:46N 37°20' E 011°17'518.7
2017-Jun-28 15:30N 37°23' E 011°11'918.6
2017-Jun-28 15:00N 37°27' E 011°01'1918.7
2017-Jun-28 14:01N 37°32' E 010°38'12701.8
2017-Jun-28 14:00N 37°30' E 010°24'510.6 290 / 191011.5 27.218.325.1
2017-Jun-28 13:29N 37°35' E 010°27'919.0
2017-Jun-28 13:00N 37°35' E 010°15'1018.8
2017-Jun-28 12:30N 37°35' E 010°03'918.7
2017-Jun-28 12:01N 37°37' E 009°51'918.9
2017-Jun-28 11:31N 37°40' E 009°40'1119.1
2017-Jun-28 10:55N 37°43' E 009°26'818.9
2017-Jun-28 10:30N 37°45' E 009°17'1018.8
2017-Jun-28 10:00N 37°48' E 009°05'918.7
2017-Jun-28 09:31N 37°51' E 008°54'2518.4
2017-Jun-28 08:08N 37°57' E 008°24'3817.5
2017-Jun-28 06:00N 38°00' E 007°36'8420.9 250 / 131007.4 5.4 26.421.625.0
2017-Jun-28 02:00N 38°24' E 005°54'3 8.1 230 / 201008.1 5.4 26.022.325.4
2017-Jun-28 01:39N 38°25' E 005°57'518.1
2017-Jun-28 01:21N 38°27' E 005°50'1718.1
2017-Jun-28 00:24N 38°31' E 005°29'718.2
2017-Jun-28 00:00N 38°32' E 005°20'918.5
2017-Jun-27 23:31N 38°35' E 005°09'1319.0
2017-Jun-27 22:50N 38°38' E 004°53'919.2
2017-Jun-27 22:22N 38°40' E 004°42'1019.1
2017-Jun-27 21:50N 38°42' E 004°29'919.0
2017-Jun-27 21:22N 38°45' E 004°18'719.2
2017-Jun-27 21:00N 38°46' E 004°09'5844.9
2017-Jun-27 21:00N 38°42' E 004°12'1326.6 200 / 221008.210.8 25.521.824.9
2017-Jun-27 20:30N 38°49' E 003°57'1019.3
2017-Jun-27 20:00N 38°51' E 003°45'1019.2
2017-Jun-27 19:30N 38°53' E 003°34'919.1
2017-Jun-27 19:01N 38°55' E 003°22'1019.3
2017-Jun-27 18:30N 38°58' E 003°10'1019.2
2017-Jun-27 18:00N 39°00' E 002°58'917.5
2017-Jun-27 17:31N 39°05' E 002°48'917.6
2017-Jun-27 17:01N 39°13' E 002°44'816.7
2017-Jun-27 16:30N 39°21' E 002°39'714.9
2017-Jun-27 16:00N 39°28' E 002°38'510.1
2017-Jun-27 15:30N 39°33' E 002°38'1 1.1
2017-Jun-27 14:56N 39°33' E 002°38'0 0.0
2017-Jun-27 13:59N 39°33' E 002°38'0 0.0
2017-Jun-27 13:29N 39°33' E 002°38'0 0.0
2017-Jun-27 12:59N 39°33' E 002°38'0 0.0
2017-Jun-27 12:29N 39°33' E 002°38'0 0.0
2017-Jun-27 11:59N 39°33' E 002°38'0 0.0
2017-Jun-27 11:29N 39°33' E 002°38'0 0.0
2017-Jun-27 10:59N 39°33' E 002°38'0 0.0
2017-Jun-27 10:29N 39°33' E 002°38'0 0.0
2017-Jun-27 09:59N 39°33' E 002°38'0 0.0
2017-Jun-27 09:29N 39°33' E 002°38'0 0.0
2017-Jun-27 08:59N 39°33' E 002°38'0 0.0
2017-Jun-27 08:29N 39°33' E 002°38'0 0.0
2017-Jun-27 07:59N 39°33' E 002°38'0 0.0
2017-Jun-27 07:29N 39°33' E 002°38'0 0.0
2017-Jun-27 06:59N 39°33' E 002°38'0 0.0
2017-Jun-27 06:29N 39°33' E 002°38'0 0.0
2017-Jun-27 05:59N 39°33' E 002°38'0 0.1
2017-Jun-27 05:30N 39°33' E 002°38'2 3.7
2017-Jun-27 05:00N 39°32' E 002°39'613.0
2017-Jun-27 04:30N 39°26' E 002°35'713.3
2017-Jun-27 04:00N 39°21' E 002°30'917.1
2017-Jun-27 03:30N 39°14' E 002°23'1121.7
2017-Jun-27 03:00N 39°06' E 002°14'1121.2
2017-Jun-27 02:30N 38°58' E 002°05'1121.2
2017-Jun-27 02:00N 38°50' E 001°56'1121.4
2017-Jun-27 01:30N 38°42' E 001°48'1121.5
2017-Jun-27 01:00N 38°34' E 001°38'11736.4
2017-Jun-27 01:00N 38°42' E 001°48'2245.3 180 / 21012.8 5.4 24.021.022.0
2017-Jun-27 00:30N 38°27' E 001°27'1421.6
2017-Jun-26 23:50N 38°19' E 001°12'721.7
2017-Jun-26 23:30N 38°15' E 001°05'1121.6
2017-Jun-26 23:00N 38°08' E 000°54'1121.4
2017-Jun-26 22:30N 38°02' E 000°42'1221.6
2017-Jun-26 21:55N 37°55' E 000°30'921.5
2017-Jun-26 21:29N 37°49' E 000°20'1121.8
2017-Jun-26 21:00N 37°43' E 000°09'1121.6
2017-Jun-26 20:30N 37°37' W 000°02'1121.7
2017-Jun-26 20:00N 37°30' W 000°13'1121.9
2017-Jun-26 19:30N 37°24' W 000°24'1121.8
2017-Jun-26 19:00N 37°18' W 000°35'1121.8
2017-Jun-26 18:31N 37°11' W 000°46'1121.6
2017-Jun-26 18:00N 37°05' W 000°57'1021.0
2017-Jun-26 17:31N 36°58' W 001°08'1020.6
2017-Jun-26 17:01N 36°53' W 001°18'1220.8
2017-Jun-26 16:26N 36°46' W 001°30'921.1
2017-Jun-26 15:59N 36°40' W 001°40'1120.8
2017-Jun-26 15:29N 36°34' W 001°51'1020.9
2017-Jun-26 15:00N 36°28' W 001°60'1120.8
2017-Jun-26 14:30N 36°23' W 002°12'14719.5
2017-Jun-26 06:57N 36°01' W 005°12'1021.7
2017-Jun-26 06:30N 35°59' W 005°24'2021.4
2017-Jun-26 05:33N 35°55' W 005°48'222.7
2017-Jun-26 05:28N 35°54' W 005°51'1122.4
2017-Jun-26 04:58N 35°54' W 006°04'1222.1
2017-Jun-26 04:26N 35°55' W 006°19'1021.4
2017-Jun-26 03:58N 35°58' W 006°31'1421.1
2017-Jun-26 03:17N 36°02' W 006°48'621.4
2017-Jun-26 03:00N 36°03' W 006°55'1121.1
2017-Jun-26 02:31N 36°06' W 007°07'1121.0
2017-Jun-26 02:00N 36°08' W 007°20'1020.9
2017-Jun-26 01:31N 36°11' W 007°33'1121.3
2017-Jun-26 01:00N 36°14' W 007°46'1021.2
2017-Jun-26 00:30N 36°16' W 007°58'1121.2
2017-Jun-26 00:00N 36°19' W 008°11'1121.3
2017-Jun-25 23:30N 36°22' W 008°24'1121.3
2017-Jun-25 22:58N 36°25' W 008°37'1021.1
2017-Jun-25 22:30N 36°28' W 008°49'4 7.4
2017-Jun-25 22:00N 36°24' W 008°48'13747.3 340 / 321014.310.8 20.417.721.7
2017-Jun-25 21:58N 36°31' W 009°03'1021.0
2017-Jun-25 21:30N 36°34' W 009°15'1121.2
2017-Jun-25 20:58N 36°41' W 009°25'920.8
2017-Jun-25 20:31N 36°48' W 009°33'1121.3
2017-Jun-25 20:00N 36°59' W 009°37'1021.1
2017-Jun-25 19:31N 37°08' W 009°41'1121.0
2017-Jun-25 19:00N 37°19' W 009°42'1020.9
2017-Jun-25 18:31N 37°29' W 009°45'1121.3
2017-Jun-25 18:01N 37°40' W 009°48'1121.0
2017-Jun-25 17:30N 37°50' W 009°51'1020.9
2017-Jun-25 17:01N 37°60' W 009°55'1020.8
2017-Jun-25 16:31N 38°10' W 009°57'1020.6
2017-Jun-25 16:01N 38°20' W 009°60'1020.7
2017-Jun-25 15:31N 38°30' W 010°03'1020.6
2017-Jun-25 15:00N 38°40' W 010°06'1019.6
2017-Jun-25 14:30N 38°50' W 010°07'1919.5
2017-Jun-25 13:30N 39°10' W 010°06'1020.1
2017-Jun-25 13:00N 39°20' W 010°05'1020.1
2017-Jun-25 12:31N 39°30' W 010°06'1020.2
2017-Jun-25 12:00N 39°40' W 010°06'1120.0
2017-Jun-25 11:27N 39°51' W 010°06'920.0
2017-Jun-25 11:00N 39°60' W 010°06'1120.0
2017-Jun-25 10:28N 40°11' W 010°07'2219.9
2017-Jun-25 09:22N 40°33' W 010°07'820.1
2017-Jun-25 08:57N 40°41' W 010°06'1119.9
2017-Jun-25 08:24N 40°52' W 010°06'1019.9
2017-Jun-25 07:52N 41°02' W 010°07'819.9
2017-Jun-25 07:28N 41°10' W 010°07'1020.3
2017-Jun-25 06:57N 41°21' W 010°07'920.9
2017-Jun-25 06:30N 41°30' W 010°07'41319.5
2017-Jun-24 09:20N 47°46' W 006°07'721.8
2017-Jun-24 09:00N 47°52' W 006°01'2621.8
2017-Jun-24 07:49N 48°14' W 005°40'721.4
2017-Jun-24 07:28N 48°20' W 005°34'1021.4
2017-Jun-24 07:01N 48°28' W 005°27'5269.2
2017-Jun-24 07:00N 48°24' W 005°24'1327.1 240 / 231018.210.8 17.514.916.0
2017-Jun-24 06:31N 48°36' W 005°17'1019.1
2017-Jun-24 06:01N 48°43' W 005°07'918.3
2017-Jun-24 05:31N 48°49' W 004°56'917.6
2017-Jun-24 05:01N 48°55' W 004°46'917.4
2017-Jun-24 04:30N 49°00' W 004°36'917.5
2017-Jun-24 04:00N 49°06' W 004°26'917.7
2017-Jun-24 03:30N 49°12' W 004°16'1018.4
2017-Jun-24 02:57N 49°19' W 004°05'1319.1
2017-Jun-24 02:16N 49°29' W 003°52'720.0
2017-Jun-24 01:56N 49°32' W 003°43'920.9
2017-Jun-24 01:30N 49°38' W 003°32'1121.7
2017-Jun-24 01:00N 49°46' W 003°20'1122.2
2017-Jun-24 00:30N 49°53' W 003°07'1122.0
2017-Jun-24 00:00N 49°58' W 002°52'1122.0
2017-Jun-23 23:30N 50°02' W 002°36'1121.5
2017-Jun-23 23:00N 50°07' W 002°21'1220.6
2017-Jun-23 22:26N 50°12' W 002°04'715.1
2017-Jun-23 22:00N 50°12' W 001°54'928.7 240 / 241017.810.8 15.314.119.0
2017-Jun-23 21:40N 50°19' W 001°44'2117.5
2017-Jun-23 20:27N 50°29' W 001°15'714.8
2017-Jun-23 20:01N 50°33' W 001°07'713.9
2017-Jun-23 19:30N 50°38' W 000°59'5 9.3
2017-Jun-23 19:00N 50°43' W 001°00'816.7
2017-Jun-23 18:31N 50°46' W 001°12'510.5
2017-Jun-23 18:00N 50°49' W 001°18'5 9.5
2017-Jun-23 17:30N 50°53' W 001°24'1 1.3
2017-Jun-23 16:58N 50°53' W 001°24'0 0.0
2017-Jun-23 16:28N 50°53' W 001°24'0 0.0
2017-Jun-23 15:58N 50°53' W 001°24'0 0.0
2017-Jun-23 15:28N 50°53' W 001°24'0 0.0
2017-Jun-23 14:55N 50°53' W 001°24'0 0.0
2017-Jun-23 13:58N 50°53' W 001°24'0 0.0
2017-Jun-23 13:28N 50°53' W 001°24'0 0.0
2017-Jun-23 12:58N 50°53' W 001°24'0 0.0
2017-Jun-23 12:28N 50°53' W 001°24'0 0.0
2017-Jun-23 11:58N 50°53' W 001°24'0 0.0
2017-Jun-23 11:28N 50°53' W 001°24'0 0.0
2017-Jun-23 10:58N 50°53' W 001°24'0 0.0
2017-Jun-23 10:28N 50°53' W 001°24'0 0.0
2017-Jun-23 09:58N 50°53' W 001°24'0 0.0
2017-Jun-23 09:28N 50°53' W 001°24'0 0.0
2017-Jun-23 08:58N 50°53' W 001°24'0 0.0
2017-Jun-23 08:28N 50°53' W 001°24'0 0.0
2017-Jun-23 07:58N 50°53' W 001°24'0 0.0
2017-Jun-23 07:28N 50°53' W 001°24'0 0.0
2017-Jun-23 06:58N 50°53' W 001°24'0 0.0
2017-Jun-23 06:28N 50°53' W 001°24'0 0.0
2017-Jun-23 05:58N 50°53' W 001°24'0 0.0
2017-Jun-23 05:28N 50°53' W 001°24'0 0.4
2017-Jun-23 05:00N 50°53' W 001°24'3 6.5
2017-Jun-23 04:31N 50°51' W 001°20'4 8.1
2017-Jun-23 04:01N 50°47' W 001°19'713.5
2017-Jun-23 03:31N 50°46' W 001°08'815.3
2017-Jun-23 03:01N 50°42' W 000°58'612.2
2017-Jun-23 02:31N 50°36' W 000°60'713.3
2017-Jun-23 02:00N 50°31' W 001°07'611.5
2017-Jun-23 01:30N 50°28' W 001°15'611.2
2017-Jun-23 01:00N 50°26' W 001°23'610.7
2017-Jun-23 00:27N 50°23' W 001°31'510.1
2017-Jun-22 23:54N 50°21' W 001°39'410.0
2017-Jun-22 23:29N 50°21' W 001°46'510.6
2017-Jun-22 23:00N 50°19' W 001°54'611.3
2017-Jun-22 22:26N 50°17' W 002°03'512.2
2017-Jun-22 22:00N 50°15' W 002°10'712.3
2017-Jun-22 21:24N 50°07' W 002°08'612.5
2017-Jun-22 20:57N 50°02' W 002°06'812.3
2017-Jun-22 20:17N 49°54' W 002°03'412.2
2017-Jun-22 19:56N 49°50' W 002°03'914.3
2017-Jun-22 19:16N 49°40' W 002°06'414.1
2017-Jun-22 18:58N 49°36' W 002°08'714.1
2017-Jun-22 18:30N 49°30' W 002°11'814.4
2017-Jun-22 17:58N 49°23' W 002°16'10 9.5
2017-Jun-22 16:54N 49°28' W 002°30'0 0.0
2017-Jun-22 16:12N 49°28' W 002°30'0 0.0
2017-Jun-22 14:15N 49°28' W 002°30'0 0.0
2017-Jun-22 11:51N 49°28' W 002°30'0 0.0
2017-Jun-22 10:15N 49°28' W 002°30'0 0.2
2017-Jun-22 10:00N 49°28' W 002°30'0 0.0
2017-Jun-22 08:03N 49°28' W 002°30'0 0.0
2017-Jun-22 07:51N 49°28' W 002°30'0 0.0
2017-Jun-22 07:24N 49°28' W 002°30'0 0.0
2017-Jun-22 06:57N 49°28' W 002°30'0 0.0
2017-Jun-22 06:30N 49°28' W 002°30'1 1.4
2017-Jun-22 05:59N 49°27' W 002°30'4 9.3
2017-Jun-22 05:31N 49°23' W 002°31'612.6
2017-Jun-22 05:00N 49°20' W 002°40'612.4
2017-Jun-22 04:30N 49°18' W 002°49'612.5
2017-Jun-22 04:00N 49°16' W 002°58'612.7
2017-Jun-22 03:30N 49°14' W 003°07'612.8
2017-Jun-22 03:01N 49°12' W 003°16'713.9
2017-Jun-22 02:31N 49°10' W 003°27'714.6
2017-Jun-22 02:00N 49°07' W 003°37'714.8
2017-Jun-22 01:31N 49°05' W 003°48'814.9
2017-Jun-22 01:00N 49°02' W 003°58'714.6
2017-Jun-22 00:31N 48°60' W 004°09'714.3
2017-Jun-22 00:01N 48°57' W 004°19'714.2
2017-Jun-21 23:30N 48°54' W 004°29'713.6
2017-Jun-21 23:00N 48°52' W 004°39'713.2
2017-Jun-21 22:30N 48°49' W 004°48'613.1
2017-Jun-21 22:00N 48°46' W 004°57'713.6
2017-Jun-21 21:30N 48°43' W 005°06'713.3
2017-Jun-21 21:00N 48°39' W 005°14'713.4
2017-Jun-21 20:30N 48°34' W 005°20'612.8
2017-Jun-21 20:00N 48°28' W 005°25'612.6
2017-Jun-21 19:30N 48°22' W 005°26'612.4
2017-Jun-21 19:00N 48°16' W 005°27'612.9
2017-Jun-21 18:30N 48°09' W 005°26'612.6
2017-Jun-21 18:00N 48°03' W 005°25'611.5
2017-Jun-21 17:30N 47°57' W 005°24'612.4
2017-Jun-21 17:00N 47°51' W 005°22'713.4
2017-Jun-21 16:30N 47°45' W 005°19'713.5
2017-Jun-21 16:00N 47°38' W 005°16'713.6
2017-Jun-21 15:30N 47°32' W 005°13'713.4
2017-Jun-21 15:00N 47°26' W 005°09'1413.9
2017-Jun-21 14:01N 47°13' W 005°02'714.1
2017-Jun-21 13:31N 47°06' W 004°59'713.9
2017-Jun-21 13:00N 46°59' W 004°55'713.6
2017-Jun-21 12:30N 46°53' W 004°52'713.7
2017-Jun-21 12:00N 46°46' W 004°49'714.2
2017-Jun-21 11:30N 46°40' W 004°45'713.8
2017-Jun-21 11:00N 46°33' W 004°42'713.7
2017-Jun-21 10:31N 46°27' W 004°38'714.7
2017-Jun-21 10:01N 46°20' W 004°35'714.4
2017-Jun-21 09:31N 46°13' W 004°31'713.9
2017-Jun-21 09:01N 46°07' W 004°28'714.0
2017-Jun-21 08:31N 45°60' W 004°24'713.9
2017-Jun-21 08:00N 45°53' W 004°21'713.9
2017-Jun-21 07:30N 45°47' W 004°18'713.8
2017-Jun-21 07:00N 45°40' W 004°14'714.1
2017-Jun-21 06:31N 45°34' W 004°11'714.1
2017-Jun-21 06:01N 45°27' W 004°08'3195.2
2017-Jun-21 06:00N 45°24' W 004°06'4 7.5 1018.6 5.4 21.216.819.2
2017-Jun-21 05:30N 45°21' W 004°04'713.8
2017-Jun-21 05:01N 45°14' W 004°01'714.1
2017-Jun-21 04:30N 45°07' W 003°58'713.9
2017-Jun-21 04:01N 45°01' W 003°54'714.0
2017-Jun-21 03:31N 44°54' W 003°51'714.2
2017-Jun-21 03:01N 44°48' W 003°48'713.9
2017-Jun-21 02:30N 44°41' W 003°44'713.9
2017-Jun-21 02:01N 44°35' W 003°40'713.6
2017-Jun-21 01:31N 44°29' W 003°36'713.6
2017-Jun-21 01:01N 44°22' W 003°33'713.9
2017-Jun-21 00:31N 44°15' W 003°31'713.8
2017-Jun-21 00:00N 44°09' W 003°28'713.7
2017-Jun-20 23:30N 44°02' W 003°25'713.7
2017-Jun-20 23:01N 43°56' W 003°22'714.0
2017-Jun-20 22:30N 43°49' W 003°18'713.7
2017-Jun-20 22:00N 43°43' W 003°15'714.0
2017-Jun-20 21:30N 43°36' W 003°12'713.9
2017-Jun-20 21:00N 43°30' W 003°08'612.9
2017-Jun-20 20:30N 43°24' W 003°05'32 1.8
2017-Jun-20 02:13N 43°55' W 002°57'414.5
2017-Jun-20 01:56N 43°59' W 002°55'714.5
2017-Jun-20 01:27N 44°05' W 002°51'614.4
2017-Jun-20 01:00N 44°11' W 002°47'714.6
2017-Jun-20 00:31N 44°18' W 002°43'714.6
2017-Jun-20 00:01N 44°25' W 002°39'1014.5
2017-Jun-19 23:20N 44°34' W 002°34'514.3
2017-Jun-19 23:00N 44°38' W 002°31'713.8
2017-Jun-19 22:30N 44°45' W 002°28'713.7
2017-Jun-19 22:00N 44°51' W 002°24'713.8
2017-Jun-19 21:30N 44°57' W 002°20'714.1
2017-Jun-19 21:01N 45°04' W 002°16'913.8
2017-Jun-19 20:22N 45°12' W 002°11'913.7
2017-Jun-19 19:45N 45°20' W 002°07'613.8
2017-Jun-19 19:21N 45°25' W 002°04'513.8
2017-Jun-19 19:00N 45°29' W 002°01'713.7
2017-Jun-19 18:31N 45°35' W 001°57'713.9
2017-Jun-19 18:01N 45°42' W 001°54'813.7
2017-Jun-19 17:27N 45°49' W 001°49'614.1
2017-Jun-19 17:00N 45°55' W 001°46'674282.6
2017-Jun-19 17:00N 44°48' W 001°48'73150.9 1016.810.8
2017-Jun-19 16:30N 46°01' W 001°42'713.8
2017-Jun-19 16:00N 46°07' W 001°37'714.3
2017-Jun-19 15:30N 46°07' W 001°26'714.1
2017-Jun-19 15:00N 46°06' W 001°16'4 3.7
2017-Jun-19 13:58N 46°10' W 001°14'0 0.0
2017-Jun-19 13:28N 46°10' W 001°14'0 0.0
2017-Jun-19 12:55N 46°10' W 001°14'0 0.0
2017-Jun-19 12:28N 46°10' W 001°14'0 0.0
2017-Jun-19 11:58N 46°10' W 001°14'0 0.0
2017-Jun-19 11:25N 46°10' W 001°14'0 0.0
2017-Jun-19 10:58N 46°10' W 001°14'0 0.0
2017-Jun-19 10:28N 46°10' W 001°14'0 0.0
2017-Jun-19 09:58N 46°10' W 001°14'0 0.0
2017-Jun-19 09:28N 46°10' W 001°14'0 0.0
2017-Jun-19 08:58N 46°10' W 001°14'0 0.0
2017-Jun-19 08:28N 46°10' W 001°14'0 0.0
2017-Jun-19 07:58N 46°10' W 001°14'0 0.0
2017-Jun-19 07:28N 46°10' W 001°14'0 0.0
2017-Jun-19 06:58N 46°10' W 001°14'0 0.0
2017-Jun-19 06:28N 46°10' W 001°14'0 0.0
2017-Jun-19 05:58N 46°10' W 001°14'0 0.0
2017-Jun-19 05:28N 46°10' W 001°14'0 0.6
2017-Jun-19 05:00N 46°09' W 001°15'4 7.7
2017-Jun-19 04:30N 46°06' W 001°18'612.4
2017-Jun-19 04:00N 46°07' W 001°26'713.2
2017-Jun-19 03:30N 46°07' W 001°36'713.6
2017-Jun-19 03:00N 46°09' W 001°45'714.1
2017-Jun-19 02:30N 46°13' W 001°54'714.1
2017-Jun-19 02:00N 46°17' W 002°03'714.1
2017-Jun-19 01:30N 46°21' W 002°11'714.2
2017-Jun-19 01:00N 46°24' W 002°20'714.3
2017-Jun-19 00:30N 46°28' W 002°29'  

Dump ship's entire track history